Time;durP1;ratioP1;P1;durP2;ratioP2;P2;SDS_P1;SDS_P2;PMS_P1;PMS_P2;Temp;Humidity;BMP_temperature;BMP_pressure;BME280_temperature;BME280_humidity;BME280_pressure;Samples;Min_cycle;Max_cycle;Signal;HPM_P1;HPM_P2
2022/01/11 00:02:07;;;;;;;25.58;12.63;;;22.40;69.90;;;;;;7747351;28;20196;-59
2022/01/11 00:06:09;;;;;;;22.85;12.65;;;22.30;69.60;;;;;;7747227;28;20239;-58
2022/01/11 00:09:56;;;;;;;31.30;16.80;;;22.30;69.40;;;;;;7746917;28;20184;-58
2022/01/11 00:13:42;;;;;;;25.08;14.52;;;22.20;69.00;;;;;;7747099;28;20206;-60
2022/01/11 00:17:28;;;;;;;23.13;13.75;;;22.20;69.10;;;;;;7746828;28;20581;-58
2022/01/11 00:21:13;;;;;;;27.67;16.13;;;22.10;69.00;;;;;;7746779;28;20199;-58
2022/01/11 00:25:01;;;;;;;21.90;12.88;;;22.10;68.80;;;;;;7746893;28;20694;-58
2022/01/11 00:28:46;;;;;;;31.75;18.60;;;22.10;68.90;;;;;;7746547;28;20222;-58
2022/01/11 00:32:40;;;;;;;22.20;13.25;;;22.00;68.10;;;;;;7746686;28;20208;-58
2022/01/11 00:36:39;;;;;;;27.27;14.90;;;22.00;69.00;;;;;;7746512;28;20550;-59
2022/01/11 00:40:25;;;;;;;26.17;15.80;;;22.00;68.40;;;;;;7746702;28;20179;-59
2022/01/11 00:44:11;;;;;;;31.02;17.95;;;21.90;68.40;;;;;;7746545;28;20207;-59
2022/01/11 00:47:57;;;;;;;27.55;16.88;;;21.90;67.80;;;;;;7746237;28;20202;-59
2022/01/11 00:51:42;;;;;;;30.02;18.40;;;21.80;67.70;;;;;;7746492;28;20204;-58
2022/01/11 00:55:28;;;;;;;28.95;17.60;;;21.80;67.40;;;;;;7746265;28;20194;-56
2022/01/11 00:59:13;;;;;;;30.88;17.90;;;21.80;66.80;;;;;;7745900;28;20172;-56
2022/01/11 01:02:59;;;;;;;28.77;18.30;;;21.70;66.20;;;;;;7746026;28;20208;-58
2022/01/11 01:06:45;;;;;;;30.10;18.25;;;21.70;66.30;;;;;;7746209;28;20676;-57
2022/01/11 01:10:36;;;;;;;29.67;18.58;;;21.70;66.20;;;;;;7746173;28;20200;-58
2022/01/11 01:14:21;;;;;;;28.52;17.90;;;21.70;65.90;;;;;;7746016;28;20187;-58
2022/01/11 01:18:10;;;;;;;30.08;19.23;;;21.60;65.80;;;;;;7745696;28;20267;-59
2022/01/11 01:21:56;;;;;;;30.75;18.38;;;21.60;65.50;;;;;;7745874;28;20279;-58
2022/01/11 01:25:44;;;;;;;29.73;18.48;;;21.60;65.50;;;;;;7744982;28;20258;-59
2022/01/11 01:29:29;;;;;;;32.08;18.67;;;21.60;65.50;;;;;;7745387;28;20176;-59
2022/01/11 01:33:15;;;;;;;29.92;18.50;;;21.50;65.30;;;;;;7745513;28;20591;-59
2022/01/11 01:37:00;;;;;;;31.55;18.58;;;21.50;65.50;;;;;;7745660;28;20188;-60
2022/01/11 01:40:47;;;;;;;32.22;19.30;;;21.40;65.40;;;;;;7745194;28;20180;-59
2022/01/11 01:44:33;;;;;;;34.30;19.88;;;21.40;65.40;;;;;;7745644;28;20223;-59
2022/01/11 01:48:19;;;;;;;32.45;19.27;;;21.40;65.30;;;;;;7747384;28;20168;-57
2022/01/11 01:52:05;;;;;;;36.55;20.45;;;21.40;65.20;;;;;;7751337;28;20196;-55
2022/01/11 01:55:51;;;;;;;31.60;19.55;;;21.30;65.30;;;;;;7751048;28;20184;-55
2022/01/11 01:59:36;;;;;;;32.70;20.27;;;21.30;65.40;;;;;;7750779;28;20187;-57
2022/01/11 02:03:26;;;;;;;33.63;20.13;;;21.30;65.40;;;;;;7750909;28;20196;-57
2022/01/11 02:07:11;;;;;;;35.28;20.80;;;21.20;65.40;;;;;;7750920;28;20296;-59
2022/01/11 02:10:57;;;;;;;34.42;20.73;;;21.20;65.40;;;;;;7750652;28;20271;-59
2022/01/11 02:14:43;;;;;;;35.28;20.95;;;21.20;65.40;;;;;;7750917;28;20195;-58
2022/01/11 02:18:28;;;;;;;35.35;21.55;;;21.20;65.40;;;;;;7750621;28;20604;-56
2022/01/11 02:22:13;;;;;;;36.22;21.23;;;21.20;65.30;;;;;;7750558;28;20670;-56
2022/01/11 02:26:00;;;;;;;38.78;22.88;;;21.20;65.20;;;;;;7750480;28;20204;-58
2022/01/11 02:29:46;;;;;;;35.15;21.38;;;21.10;64.90;;;;;;7750146;28;20310;-59
2022/01/11 02:33:38;;;;;;;37.08;21.73;;;21.20;65.10;;;;;;7750137;28;20301;-59
2022/01/11 02:37:23;;;;;;;42.67;23.40;;;21.10;65.00;;;;;;7749906;28;20184;-60
2022/01/11 02:41:09;;;;;;;37.22;22.35;;;21.10;64.90;;;;;;7749436;28;20210;-59
2022/01/11 02:44:54;;;;;;;42.80;24.00;;;21.10;64.70;;;;;;7749651;28;20211;-59
2022/01/11 02:48:40;;;;;;;37.08;23.17;;;21.10;64.80;;;;;;7749399;28;20519;-58
2022/01/11 02:52:25;;;;;;;38.00;23.95;;;21.00;64.90;;;;;;7749520;28;20866;-57
2022/01/11 02:56:12;;;;;;;37.58;23.27;;;21.00;65.00;;;;;;7749458;28;20180;-55
2022/01/11 02:59:58;;;;;;;42.25;24.58;;;21.00;64.90;;;;;;7748889;28;20248;-55
2022/01/11 03:03:43;;;;;;;39.85;24.88;;;21.00;64.90;;;;;;7749051;28;20203;-57
2022/01/11 03:07:29;;;;;;;40.13;24.85;;;21.00;64.90;;;;;;7748912;28;20299;-59
2022/01/11 03:11:17;;;;;;;43.75;25.33;;;21.00;64.90;;;;;;7748979;28;20199;-58
2022/01/11 03:15:03;;;;;;;43.13;26.33;;;21.00;64.70;;;;;;7749116;28;20234;-57
2022/01/11 03:18:48;;;;;;;44.72;25.67;;;21.00;64.70;;;;;;7748482;28;20180;-58
2022/01/11 03:22:34;;;;;;;45.70;26.30;;;21.00;64.70;;;;;;7748552;28;20250;-59
2022/01/11 03:26:19;;;;;;;47.22;28.13;;;20.90;64.60;;;;;;7748322;28;20207;-54
2022/01/11 03:30:06;;;;;;;48.15;26.88;;;20.90;64.50;;;;;;7748260;28;20595;-56
2022/01/11 03:33:51;;;;;;;46.75;27.90;;;21.00;64.40;;;;;;7748022;28;20227;-55
2022/01/11 03:37:38;;;;;;;46.15;27.83;;;20.90;64.40;;;;;;7747895;28;20211;-59
2022/01/11 03:41:23;;;;;;;47.17;27.50;;;20.90;64.30;;;;;;7747816;28;20219;-59
2022/01/11 03:45:10;;;;;;;47.65;27.65;;;20.90;64.30;;;;;;7747985;28;20706;-59
2022/01/11 03:48:56;;;;;;;54.30;28.90;;;20.90;64.40;;;;;;7747528;28;20638;-58
2022/01/11 03:52:43;;;;;;;47.35;27.80;;;20.80;64.40;;;;;;7747840;28;20571;-58
2022/01/11 03:56:28;;;;;;;51.65;28.58;;;20.80;64.30;;;;;;7747814;28;20234;-57
2022/01/11 04:00:17;;;;;;;48.28;28.85;;;20.90;64.30;;;;;;7747423;28;20270;-59
2022/01/11 04:04:05;;;;;;;50.70;29.40;;;20.80;64.10;;;;;;7747562;28;20402;-59
2022/01/11 04:07:50;;;;;;;49.72;28.05;;;20.90;64.10;;;;;;7747135;28;20199;-59
2022/01/11 04:11:36;;;;;;;49.10;29.17;;;20.80;64.10;;;;;;7746412;28;20242;-59
2022/01/11 04:15:21;;;;;;;54.72;30.92;;;20.80;64.10;;;;;;7747123;28;20680;-58
2022/01/11 04:19:07;;;;;;;52.08;29.42;;;20.80;64.00;;;;;;7746867;28;20704;-58
2022/01/11 04:22:52;;;;;;;53.45;30.15;;;20.80;64.90;;;;;;7746952;28;20208;-59
2022/01/11 04:26:38;;;;;;;52.95;30.25;;;20.80;63.90;;;;;;7746768;28;20207;-59
2022/01/11 04:30:24;;;;;;;49.80;28.13;;;20.80;63.90;;;;;;7746391;28;20712;-60
2022/01/11 04:34:09;;;;;;;47.63;28.40;;;20.80;63.90;;;;;;7746459;28;20215;-59
2022/01/11 04:37:55;;;;;;;45.63;27.45;;;20.80;64.00;;;;;;7746283;28;20186;-59
2022/01/11 04:41:40;;;;;;;48.28;27.73;;;20.70;64.00;;;;;;7746371;28;20562;-59
2022/01/11 04:45:26;;;;;;;50.67;28.00;;;20.70;64.00;;;;;;7746342;28;20940;-59
2022/01/11 04:49:11;;;;;;;49.08;27.67;;;20.70;64.10;;;;;;7746243;28;20199;-59
2022/01/11 04:52:57;;;;;;;50.08;27.50;;;20.70;64.10;;;;;;7746531;28;20204;-59
2022/01/11 04:56:43;;;;;;;49.45;27.70;;;20.70;64.20;;;;;;7746308;28;20187;-59
2022/01/11 05:00:28;;;;;;;48.97;27.60;;;20.70;64.00;;;;;;7745984;28;20203;-56
2022/01/11 05:04:14;;;;;;;50.55;27.35;;;20.60;64.00;;;;;;7745939;28;20200;-55
2022/01/11 05:08:02;;;;;;;48.13;27.67;;;20.60;64.00;;;;;;7745814;28;20211;-58
2022/01/11 05:11:47;;;;;;;50.17;28.15;;;20.60;63.80;;;;;;7745964;28;20221;-56
2022/01/11 05:15:33;;;;;;;51.35;28.77;;;20.60;64.00;;;;;;7745876;28;20217;-58
2022/01/11 05:19:18;;;;;;;51.67;28.83;;;20.60;63.80;;;;;;7745618;28;20672;-56
2022/01/11 05:23:05;;;;;;;46.28;26.90;;;20.60;63.90;;;;;;7747667;28;20231;-57
2022/01/11 05:26:50;;;;;;;49.50;27.50;;;20.60;64.00;;;;;;7751917;28;20214;-55
2022/01/11 05:30:36;;;;;;;50.17;28.23;;;20.60;64.20;;;;;;7751311;28;20176;-57
2022/01/11 05:34:21;;;;;;;48.80;27.42;;;20.60;64.20;;;;;;7749614;28;20191;-57
2022/01/11 05:38:07;;;;;;;48.90;27.20;;;20.60;64.50;;;;;;7750224;28;20238;-55
2022/01/11 05:41:53;;;;;;;52.50;26.80;;;20.60;64.10;;;;;;7745805;28;20204;-57
2022/01/11 05:45:39;;;;;;;54.72;28.42;;;20.70;64.30;;;;;;7721160;28;20266;-55
2022/01/11 05:49:24;;;;;;;57.13;28.42;;;20.70;64.50;;;;;;7726681;28;20187;-57
2022/01/11 05:53:10;;;;;;;53.17;25.58;;;20.70;64.40;;;;;;7750460;28;20631;-59
2022/01/11 05:56:56;;;;;;;68.00;26.02;;;20.70;64.70;;;;;;7749549;28;20183;-60
2022/01/11 06:00:41;;;;;;;60.00;25.88;;;20.70;64.80;;;;;;7745231;28;20181;-59
2022/01/11 06:04:27;;;;;;;64.93;22.10;;;20.80;64.70;;;;;;7727459;28;20196;-61
2022/01/11 06:08:16;;;;;;;55.33;22.13;;;20.80;65.20;;;;;;7749645;28;20190;-60
2022/01/11 06:12:02;;;;;;;68.38;23.98;;;20.80;65.70;;;;;;7750085;28;20684;-61
2022/01/11 06:15:47;;;;;;;54.03;24.27;;;20.90;65.80;;;;;;7749913;28;20555;-62
2022/01/11 06:19:34;;;;;;;76.22;25.63;;;20.80;65.50;;;;;;7749481;28;20208;-62
2022/01/11 06:23:19;;;;;;;54.42;23.77;;;20.80;65.50;;;;;;7749453;28;20188;-59
2022/01/11 06:27:05;;;;;;;54.95;24.90;;;20.90;65.50;;;;;;7748441;28;20215;-61
2022/01/11 06:30:50;;;;;;;55.22;23.30;;;20.90;65.30;;;;;;7747708;28;20195;-61
2022/01/11 06:34:36;;;;;;;51.90;23.88;;;20.90;65.30;;;;;;7747816;28;20199;-60
2022/01/11 06:38:21;;;;;;;55.25;23.98;;;20.90;65.20;;;;;;7748917;28;20692;-61
2022/01/11 06:42:08;;;;;;;49.25;22.85;;;20.90;66.00;;;;;;7749054;28;20709;-61
2022/01/11 06:45:53;;;;;;;49.72;22.92;;;20.90;65.10;;;;;;7748414;28;20642;-62
2022/01/11 06:49:40;;;;;;;46.13;23.80;;;21.00;65.50;;;;;;7748262;28;20263;-61
2022/01/11 06:53:28;;;;;;;46.28;22.83;;;21.00;65.00;;;;;;7748406;28;20211;-62
2022/01/11 06:57:13;;;;;;;48.58;22.55;;;21.00;64.80;;;;;;7748335;28;20187;-62
2022/01/11 07:00:59;;;;;;;49.55;22.83;;;21.00;64.70;;;;;;7747701;28;20208;-59
2022/01/11 07:04:44;;;;;;;50.38;22.45;;;21.00;64.90;;;;;;7747405;28;20187;-59
2022/01/11 07:08:30;;;;;;;50.55;22.25;;;21.00;65.10;;;;;;7747911;28;20219;-59
2022/01/11 07:12:16;;;;;;;54.25;22.25;;;21.00;64.90;;;;;;7747787;28;20270;-60
2022/01/11 07:16:01;;;;;;;43.75;22.75;;;21.00;64.90;;;;;;7747800;28;20661;-59
2022/01/11 07:19:47;;;;;;;43.55;21.55;;;21.00;64.90;;;;;;7747609;28;20274;-60
2022/01/11 07:23:32;;;;;;;40.50;21.55;;;21.00;64.90;;;;;;7747218;28;20295;-59
2022/01/11 07:27:18;;;;;;;41.55;20.73;;;21.00;65.00;;;;;;7747503;28;20274;-60
2022/01/11 07:31:04;;;;;;;42.13;21.80;;;21.00;65.10;;;;;;7747085;28;20274;-58
2022/01/11 07:34:49;;;;;;;47.05;22.17;;;21.00;65.20;;;;;;7747160;28;20219;-60
2022/01/11 07:38:34;;;;;;;45.72;20.85;;;21.00;65.00;;;;;;7746886;28;20642;-60
2022/01/11 07:42:20;;;;;;;45.85;20.52;;;21.00;65.10;;;;;;7746910;28;20931;-60
2022/01/11 07:46:06;;;;;;;36.70;20.05;;;21.00;65.20;;;;;;7745619;28;20211;-58
2022/01/11 07:49:52;;;;;;;38.20;21.13;;;21.00;65.50;;;;;;7745952;28;20179;-59
2022/01/11 07:53:37;;;;;;;38.70;21.45;;;21.00;65.50;;;;;;7747235;28;20228;-59
2022/01/11 07:57:23;;;;;;;41.22;20.55;;;21.00;65.50;;;;;;7746819;28;20184;-60
2022/01/11 08:01:08;;;;;;;54.80;23.08;;;21.00;65.80;;;;;;7746163;28;20670;-59
2022/01/11 08:04:54;;;;;;;46.13;22.13;;;20.90;63.20;;;;;;7746422;28;20278;-59
2022/01/11 08:08:39;;;;;;;37.67;22.35;;;20.90;63.20;;;;;;7746219;28;20176;-61
2022/01/11 08:12:25;;;;;;;48.63;22.88;;;20.90;63.30;;;;;;7746252;28;20226;-58
2022/01/11 08:16:11;;;;;;;46.45;22.27;;;20.90;63.20;;;;;;7745883;28;20262;-60
2022/01/11 08:19:56;;;;;;;39.92;22.38;;;20.90;63.60;;;;;;7745687;28;20188;-59
2022/01/11 08:23:42;;;;;;;38.67;20.48;;;20.90;63.70;;;;;;7746124;28;20198;-60
2022/01/11 08:27:27;;;;;;;45.05;22.48;;;20.90;64.00;;;;;;7745287;28;20277;-58
2022/01/11 08:31:13;;;;;;;37.33;21.48;;;20.90;64.00;;;;;;7745586;28;20207;-60
2022/01/11 08:34:58;;;;;;;43.88;22.23;;;21.00;63.90;;;;;;7743633;28;20192;-59
2022/01/11 08:38:44;;;;;;;39.08;21.23;;;21.00;63.70;;;;;;7745293;28;20637;-60
2022/01/11 08:42:30;;;;;;;39.88;22.67;;;21.10;63.80;;;;;;7745614;28;20200;-59
2022/01/11 08:46:16;;;;;;;38.08;20.25;;;21.20;63.70;;;;;;7745584;28;20574;-60
2022/01/11 08:50:05;;;;;;;37.45;19.40;;;21.30;64.30;;;;;;7743196;28;20183;-58
2022/01/11 08:53:50;;;;;;;38.10;19.55;;;21.50;65.20;;;;;;7744890;28;20662;-61
2022/01/11 08:57:36;;;;;;;35.80;17.25;;;21.60;65.80;;;;;;7743979;28;20578;-61
2022/01/11 09:01:23;;;;;;;34.30;16.23;;;21.80;66.40;;;;;;7744967;28;20207;-61
2022/01/11 09:05:09;;;;;;;36.88;17.13;;;22.00;66.50;;;;;;7728509;28;20706;-62
2022/01/11 09:08:54;;;;;;;38.58;16.98;;;22.10;65.90;;;;;;7715184;28;20750;-61
2022/01/11 09:12:40;;;;;;;41.47;16.02;;;22.20;66.30;;;;;;7715107;28;20531;-60
2022/01/11 09:16:26;;;;;;;38.55;16.00;;;22.30;66.20;;;;;;7714861;28;20200;-61
2022/01/11 09:20:13;;;;;;;32.58;15.68;;;22.40;66.50;;;;;;7732222;28;20188;-59
2022/01/11 09:24:01;;;;;;;35.17;16.60;;;22.50;66.40;;;;;;7745555;28;20200;-61
2022/01/11 09:27:46;;;;;;;36.17;16.73;;;22.60;66.50;;;;;;7715921;28;20212;-62
2022/01/11 09:31:32;;;;;;;34.03;16.98;;;22.70;66.40;;;;;;7714337;28;20216;-61
2022/01/11 09:35:17;;;;;;;34.90;15.13;;;22.80;66.20;;;;;;7740353;28;20603;-60
2022/01/11 09:39:03;;;;;;;34.20;15.75;;;22.80;66.20;;;;;;7744275;28;20863;-60
2022/01/11 09:42:49;;;;;;;31.75;15.65;;;22.90;66.20;;;;;;7744585;28;20212;-61
2022/01/11 09:46:35;;;;;;;38.63;15.57;;;22.90;66.30;;;;;;7744166;28;20215;-60
2022/01/11 09:50:21;;;;;;;32.35;16.80;;;23.00;67.30;;;;;;7741250;28;20259;-62
2022/01/11 09:54:08;;;;;;;31.30;15.43;;;23.00;66.10;;;;;;7735730;28;20212;-63
2022/01/11 09:57:53;;;;;;;28.20;14.77;;;23.00;66.50;;;;;;7724687;28;20252;-62
2022/01/11 10:01:39;;;;;;;32.08;15.55;;;23.00;66.50;;;;;;7735617;28;20725;-62
2022/01/11 10:05:24;;;;;;;31.85;14.77;;;23.00;66.70;;;;;;7741361;28;20222;-61
2022/01/11 10:09:16;;;;;;;36.47;15.38;;;23.00;66.80;;;;;;7744189;28;20272;-60
2022/01/11 10:13:03;;;;;;;34.42;15.85;;;22.90;66.80;;;;;;7747587;28;20704;-60
2022/01/11 10:16:50;;;;;;;30.42;15.32;;;22.90;66.80;;;;;;7749556;28;20188;-61
2022/01/11 10:20:36;;;;;;;31.40;14.45;;;22.90;67.00;;;;;;7749056;28;20589;-60
2022/01/11 10:24:32;;;;;;;35.00;15.48;;;22.90;67.00;;;;;;7749299;28;20234;-60
2022/01/11 10:28:17;;;;;;;38.38;18.13;;;22.90;67.00;;;;;;7748976;28;20192;-60
2022/01/11 10:32:30;;;;;;;33.33;17.33;;;22.80;64.00;;;;;;7748796;28;20259;-60
2022/01/11 10:36:16;;;;;;;37.58;15.98;;;22.70;65.90;;;;;;7748900;28;20188;-59
2022/01/11 10:40:32;;;;;;;36.65;15.80;;;22.70;66.40;;;;;;7749013;28;20712;-60
2022/01/11 10:44:42;;;;;;;31.65;16.63;;;22.70;66.90;;;;;;7748896;28;20204;-58
2022/01/11 10:48:28;;;;;;;32.67;15.57;;;22.70;66.90;;;;;;7748587;28;20192;-60
2022/01/11 10:52:16;;;;;;;34.05;15.73;;;22.70;67.10;;;;;;7747302;28;20227;-58
2022/01/11 10:56:02;;;;;;;28.50;15.20;;;22.80;67.10;;;;;;7744503;28;20192;-59
2022/01/11 11:00:09;;;;;;;29.27;15.13;;;22.80;67.10;;;;;;7748439;28;20180;-61
2022/01/11 11:03:54;;;;;;;25.60;14.50;;;22.80;66.90;;;;;;7732113;28;20239;-60
2022/01/11 11:07:41;;;;;;;35.60;15.27;;;22.90;67.00;;;;;;7747544;28;20227;-60
2022/01/11 11:11:26;;;;;;;34.25;15.38;;;23.00;66.80;;;;;;7734048;28;20368;-56
2022/01/11 11:15:12;;;;;;;35.67;14.82;;;22.90;66.90;;;;;;7746807;28;20184;-52
2022/01/11 11:18:59;;;;;;;28.95;14.10;;;22.90;67.10;;;;;;7748246;28;20187;-52
2022/01/11 11:22:45;;;;;;;33.92;14.38;;;23.00;68.30;;;;;;7747681;28;20203;-51
2022/01/11 11:26:40;;;;;;;35.97;15.02;;;23.20;68.40;;;;;;7747905;28;20212;-53
2022/01/11 11:30:25;;;;;;;44.63;14.02;;;23.20;66.10;;;;;;7747879;28;20176;-52
2022/01/11 11:34:12;;;;;;;38.00;16.15;;;23.20;67.80;;;;;;7747387;28;20231;-52
2022/01/11 11:38:01;;;;;;;31.40;14.50;;;23.20;68.40;;;;;;7747621;28;20172;-51
2022/01/11 11:41:50;;;;;;;23.92;14.50;;;23.20;69.60;;;;;;7747633;28;20216;-52
2022/01/11 11:45:37;;;;;;;41.53;15.30;;;23.30;69.70;;;;;;7746980;28;20587;-52
2022/01/11 11:49:44;;;;;;;33.55;15.20;;;23.30;68.90;;;;;;7747332;28;20176;-52
2022/01/11 11:53:34;;;;;;;38.20;14.27;;;23.30;69.70;;;;;;7747320;28;20200;-52
2022/01/11 11:57:21;;;;;;;40.80;14.80;;;23.30;71.80;;;;;;7746957;28;20199;-51
2022/01/11 12:01:06;;;;;;;34.03;14.45;;;23.30;72.10;;;;;;7746569;28;20686;-54
2022/01/11 12:04:53;;;;;;;31.67;13.75;;;23.30;72.10;;;;;;7746850;28;20605;-52
2022/01/11 12:08:43;;;;;;;31.40;14.18;;;23.30;72.50;;;;;;7746981;28;20804;-53
2022/01/11 12:12:49;;;;;;;25.30;14.27;;;23.30;72.50;;;;;;7746589;28;20207;-55
2022/01/11 12:16:39;;;;;;;37.28;14.52;;;23.30;72.80;;;;;;7715685;28;20211;-51
2022/01/11 12:20:45;;;;;;;30.92;14.93;;;23.40;73.00;;;;;;7738283;28;20571;-52
2022/01/11 12:24:39;;;;;;;66.55;36.92;;;23.40;73.10;;;;;;7746312;28;20172;-51
2022/01/11 12:28:26;;;;;;;38.13;19.08;;;23.20;59.40;;;;;;7746105;28;20212;-52
2022/01/11 12:32:13;;;;;;;33.17;19.55;;;23.10;68.90;;;;;;7745488;28;20227;-51
2022/01/11 12:36:00;;;;;;;31.92;17.95;;;23.00;70.80;;;;;;7746027;28;20188;-51
2022/01/11 12:40:12;;;;;;;29.08;17.98;;;23.10;71.20;;;;;;7746210;28;20203;-53
2022/01/11 12:48:52;;;;;;;34.35;17.23;;;23.20;71.70;;;;;;7745436;28;20251;-52
2022/01/11 12:52:38;;;;;;;28.85;16.13;;;23.20;71.60;;;;;;7746056;28;20199;-55
2022/01/11 12:56:23;;;;;;;31.45;16.80;;;23.30;71.80;;;;;;7745584;28;20195;-52
2022/01/11 13:00:16;;;;;;;36.90;17.63;;;23.40;71.90;;;;;;7742190;28;20662;-52
2022/01/11 13:04:03;;;;;;;35.95;16.15;;;23.40;72.00;;;;;;7743884;28;20214;-52
2022/01/11 13:07:51;;;;;;;39.38;16.67;;;23.40;71.80;;;;;;7743834;28;20211;-52
2022/01/11 13:11:41;;;;;;;30.35;15.88;;;23.40;72.00;;;;;;7745635;28;20224;-60
2022/01/11 13:15:39;;;;;;;42.50;16.98;;;23.40;71.90;;;;;;7745727;28;20225;-56
2022/01/11 13:19:24;;;;;;;30.90;15.32;;;23.50;71.90;;;;;;7728970;28;20673;-55
2022/01/11 13:23:24;;;;;;;29.05;16.20;;;23.50;71.70;;;;;;7715614;28;20561;-54
2022/01/11 13:27:11;;;;;;;30.73;15.50;;;23.50;71.70;;;;;;7716081;28;20219;-52
2022/01/11 13:30:56;;;;;;;30.80;14.82;;;23.50;71.60;;;;;;7715408;28;20764;-51
2022/01/11 13:34:42;;;;;;;23.88;15.30;;;23.60;71.50;;;;;;7715655;28;20522;-53
2022/01/11 13:38:33;;;;;;;29.10;15.63;;;23.60;71.50;;;;;;7715277;28;20551;-53
2022/01/11 13:42:19;;;;;;;29.38;14.73;;;23.60;71.40;;;;;;7715555;28;20207;-52
2022/01/11 13:46:17;;;;;;;23.25;14.38;;;23.50;71.40;;;;;;7719982;28;20282;-51
2022/01/11 13:50:03;;;;;;;25.77;14.60;;;23.60;71.20;;;;;;7720746;28;20255;-53
2022/01/11 13:53:56;;;;;;;29.17;15.43;;;23.60;71.10;;;;;;7720906;28;20208;-53
2022/01/11 13:57:44;;;;;;;27.45;15.05;;;23.50;71.00;;;;;;7720704;28;20269;-51
2022/01/11 14:01:30;;;;;;;27.42;14.55;;;23.50;70.90;;;;;;7720839;28;20247;-54
2022/01/11 14:05:18;;;;;;;26.77;14.40;;;23.60;71.00;;;;;;7720479;28;20200;-51
2022/01/11 14:09:03;;;;;;;25.85;14.55;;;23.50;70.80;;;;;;7720405;28;20177;-50
2022/01/11 14:12:55;;;;;;;25.15;14.88;;;23.50;70.80;;;;;;7720427;28;20207;-54
2022/01/11 14:16:41;;;;;;;25.55;15.23;;;23.50;70.70;;;;;;7718271;28;20190;-50
2022/01/11 14:20:32;;;;;;;36.42;15.35;;;23.50;70.60;;;;;;7720019;28;20188;-55
2022/01/11 14:24:19;;;;;;;31.05;14.45;;;23.50;69.60;;;;;;7720188;28;20215;-52
2022/01/11 14:28:12;;;;;;;27.40;14.45;;;23.50;70.30;;;;;;7719862;28;20710;-54
2022/01/11 14:32:07;;;;;;;25.15;14.10;;;23.40;70.20;;;;;;7719908;28;20569;-52
2022/01/11 14:36:21;;;;;;;24.67;13.70;;;23.40;70.30;;;;;;7718894;28;20180;-52
2022/01/11 14:40:19;;;;;;;26.35;14.18;;;23.40;70.30;;;;;;7719811;28;20181;-52
2022/01/11 14:44:08;;;;;;;27.33;14.20;;;23.40;70.10;;;;;;7719634;28;20200;-53
2022/01/11 14:47:55;;;;;;;23.10;13.93;;;23.40;70.00;;;;;;7719076;28;20205;-54
2022/01/11 14:51:42;;;;;;;23.35;14.15;;;23.30;69.80;;;;;;7719342;28;20309;-54
2022/01/11 14:55:51;;;;;;;34.17;16.15;;;23.40;70.00;;;;;;7718353;28;20536;-57
2022/01/11 14:59:37;;;;;;;29.67;14.23;;;23.30;65.80;;;;;;7719129;28;20180;-57
2022/01/11 15:03:27;;;;;;;35.35;16.10;;;23.30;69.20;;;;;;7719340;28;20235;-58
2022/01/11 15:07:15;;;;;;;24.75;14.25;;;23.30;66.80;;;;;;7718789;28;20251;-56
2022/01/11 15:11:09;;;;;;;25.45;14.27;;;23.20;68.30;;;;;;7718600;28;20208;-57
2022/01/11 15:14:56;;;;;;;26.38;14.90;;;23.20;68.40;;;;;;7718886;28;20184;-57
2022/01/11 15:18:43;;;;;;;30.67;16.17;;;23.20;68.00;;;;;;7718141;28;20607;-59
2022/01/11 15:22:29;;;;;;;30.92;16.65;;;23.20;64.80;;;;;;7718715;28;20283;-60
2022/01/11 15:26:24;;;;;;;36.75;18.38;;;23.20;63.00;;;;;;7718420;28;20208;-60
2022/01/11 15:30:11;;;;;;;35.58;17.48;;;23.10;61.20;;;;;;7718527;28;20192;-58
2022/01/11 15:33:56;;;;;;;41.70;22.63;;;23.00;61.60;;;;;;7717940;28;20208;-59
2022/01/11 15:37:42;;;;;;;42.88;19.45;;;22.50;54.90;;;;;;7717895;28;20180;-58
2022/01/11 15:41:31;;;;;;;39.15;19.42;;;22.20;58.10;;;;;;7718103;28;20204;-57
2022/01/11 15:45:16;;;;;;;36.15;18.50;;;22.10;59.60;;;;;;7717797;28;20223;-57
2022/01/11 15:49:03;;;;;;;28.48;17.45;;;22.20;60.50;;;;;;7717505;28;20200;-57
2022/01/11 15:52:48;;;;;;;34.47;18.17;;;22.30;60.80;;;;;;7717598;28;20193;-57
2022/01/11 15:56:34;;;;;;;37.47;18.13;;;22.40;61.10;;;;;;7717368;28;20191;-57
2022/01/11 16:00:19;;;;;;;30.88;17.60;;;22.50;61.20;;;;;;7717299;28;20212;-58
2022/01/11 16:04:05;;;;;;;32.33;17.63;;;22.50;61.20;;;;;;7717312;28;20204;-58
2022/01/11 16:07:50;;;;;;;30.42;17.85;;;22.50;61.20;;;;;;7716992;28;20209;-57
2022/01/11 16:11:36;;;;;;;32.03;17.63;;;22.60;61.20;;;;;;7716931;28;20203;-57
2022/01/11 16:15:21;;;;;;;38.58;17.48;;;22.60;61.30;;;;;;7716054;28;20354;-58
2022/01/11 16:19:08;;;;;;;32.17;17.85;;;22.60;61.30;;;;;;7716525;28;20187;-58
2022/01/11 16:22:54;;;;;;;36.22;17.55;;;22.70;62.30;;;;;;7716969;28;20207;-59
2022/01/11 16:26:39;;;;;;;39.75;18.05;;;22.70;61.20;;;;;;7716724;28;20713;-58
2022/01/11 16:30:32;;;;;;;32.97;16.38;;;22.70;61.20;;;;;;7716497;28;20728;-57
2022/01/11 16:34:17;;;;;;;37.28;18.02;;;22.70;61.40;;;;;;7716359;28;20263;-57
2022/01/11 16:38:05;;;;;;;28.67;16.92;;;22.70;61.50;;;;;;7716368;28;20188;-57
2022/01/11 16:46:07;;;;;;;33.03;17.15;;;22.70;61.70;;;;;;7715971;28;20204;-57
2022/01/11 16:49:52;;;;;;;35.15;17.85;;;22.70;62.40;;;;;;7717323;28;20201;-56
2022/01/11 16:53:38;;;;;;;30.80;17.00;;;22.70;60.20;;;;;;7745895;28;20204;-58
2022/01/11 16:57:24;;;;;;;42.05;17.20;;;22.70;60.10;;;;;;7761072;28;20754;-57
2022/01/11 17:01:09;;;;;;;53.33;17.35;;;22.70;60.00;;;;;;7729254;28;20700;-59
2022/01/11 17:04:55;;;;;;;37.80;16.45;;;22.70;60.10;;;;;;7746087;28;20658;-57
2022/01/11 17:08:40;;;;;;;32.08;16.92;;;22.70;60.10;;;;;;7765875;23;20254;-60
2022/01/11 17:12:26;;;;;;;41.47;17.17;;;22.80;60.50;;;;;;7798836;28;20217;-58
2022/01/11 17:16:11;;;;;;;38.22;17.92;;;22.90;60.40;;;;;;7799579;28;20187;-59
2022/01/11 17:19:57;;;;;;;38.40;16.98;;;22.90;60.00;;;;;;7778753;28;20547;-58
2022/01/11 17:23:42;;;;;;;30.63;16.85;;;22.90;60.00;;;;;;7782464;28;20183;-58
2022/01/11 17:27:28;;;;;;;27.75;16.50;;;22.90;59.80;;;;;;7781777;28;20753;-58
2022/01/11 17:31:13;;;;;;;32.83;20.20;;;22.90;59.80;;;;;;7802997;28;20950;-59
2022/01/11 17:34:59;;;;;;;43.50;19.23;;;22.80;57.40;;;;;;7812159;28;20174;-58
2022/01/11 17:38:45;;;;;;;38.17;16.27;;;22.70;57.90;;;;;;7810829;28;20817;-57
2022/01/11 17:42:30;;;;;;;41.75;16.88;;;22.60;58.30;;;;;;7811764;28;20616;-58
2022/01/11 17:46:16;;;;;;;41.13;17.05;;;22.70;59.40;;;;;;7811364;28;20206;-58
2022/01/11 17:50:03;;;;;;;33.78;16.95;;;22.70;59.30;;;;;;7792442;28;20230;-59
2022/01/11 17:53:48;;;;;;;38.45;18.17;;;22.80;59.40;;;;;;7788374;28;20187;-58
2022/01/11 17:57:34;;;;;;;30.02;17.48;;;22.80;59.30;;;;;;7810547;28;20189;-57
2022/01/11 18:01:22;;;;;;;31.95;16.73;;;22.90;59.30;;;;;;7811384;28;20229;-57
2022/01/11 18:05:08;;;;;;;32.15;18.90;;;22.90;59.30;;;;;;7809978;28;20197;-58
2022/01/11 18:08:53;;;;;;;42.92;20.77;;;22.90;59.50;;;;;;7801416;28;20704;-58
2022/01/11 18:12:39;;;;;;;45.78;20.67;;;23.00;59.60;;;;;;7783819;28;20194;-59
2022/01/11 18:16:27;;;;;;;39.85;22.10;;;23.10;59.60;;;;;;7810691;28;20194;-59
2022/01/11 18:20:14;;;;;;;36.65;21.67;;;23.10;59.20;;;;;;7809851;28;20252;-60
2022/01/11 18:24:01;;;;;;;44.13;22.38;;;23.20;59.20;;;;;;7793114;28;20664;-60
2022/01/11 18:27:46;;;;;;;41.42;22.00;;;23.20;58.80;;;;;;7778696;28;20309;-58
2022/01/11 18:31:34;;;;;;;38.08;19.70;;;23.20;58.80;;;;;;7778668;28;20242;-60
2022/01/11 18:35:20;;;;;;;37.92;20.80;;;23.30;59.20;;;;;;7780047;28;20168;-60
2022/01/11 18:39:06;;;;;;;39.67;18.73;;;23.30;58.80;;;;;;7779790;28;20562;-59
2022/01/11 18:42:52;;;;;;;34.97;18.05;;;23.30;57.90;;;;;;7780095;28;20187;-60
2022/01/11 18:46:37;;;;;;;41.25;18.45;;;23.30;58.20;;;;;;7779855;28;20265;-59
2022/01/11 18:50:23;;;;;;;32.42;17.67;;;23.40;58.70;;;;;;7779221;28;20195;-60
2022/01/11 18:54:11;;;;;;;30.73;18.00;;;23.40;58.70;;;;;;7779592;28;20176;-59
2022/01/11 18:57:57;;;;;;;28.77;17.17;;;23.40;58.80;;;;;;7778294;28;20191;-60
2022/01/11 19:01:42;;;;;;;31.05;17.30;;;23.40;58.70;;;;;;7778877;28;20241;-57
2022/01/11 19:05:29;;;;;;;40.53;16.58;;;23.40;58.70;;;;;;7779263;28;20195;-58
2022/01/11 19:09:14;;;;;;;49.58;16.73;;;23.40;58.80;;;;;;7778437;28;20215;-58
2022/01/11 19:13:00;;;;;;;39.60;16.55;;;23.30;58.10;;;;;;7779121;28;20168;-59
2022/01/11 19:16:46;;;;;;;37.03;15.98;;;23.30;57.50;;;;;;7778721;28;20175;-59
2022/01/11 19:20:31;;;;;;;36.00;15.43;;;23.20;59.00;;;;;;7777184;28;20219;-59
2022/01/11 19:24:17;;;;;;;37.15;15.52;;;23.30;59.00;;;;;;7778977;28;20198;-58